Time,TemperatureF,DewpointF,PressureIn,WindDirection,WindDirectionDegrees,WindSpeedMPH,WindSpeedGustMPH,Humidity,HourlyPrecipIn,Conditions,Clouds,dailyrainin,SoftwareType,DateUTC
2013-03-02 00:00:00,30.2,27.9,29.64,SW,223,0.0,0.0,91,0.00,,,0.00,WeatherDisplay:10.37,2013-03-02 05:00:00,
2013-03-02 00:10:00,30.1,27.5,29.63,SW,214,3.0,0.0,90,0.00,,,0.00,WeatherDisplay:10.37,2013-03-02 05:10:00,
2013-03-02 00:20:00,30.2,27.9,29.63,SW,223,5.0,0.0,91,0.00,,,0.00,WeatherDisplay:10.37,2013-03-02 05:20:00,
2013-03-02 00:30:00,30.2,27.6,29.64,WSW,240,0.0,0.0,90,0.00,,,0.00,WeatherDisplay:10.37,2013-03-02 05:30:00,
2013-03-02 00:40:00,30.2,27.9,29.63,SW,226,0.0,0.0,91,0.00,,,0.00,WeatherDisplay:10.37,2013-03-02 05:40:00,
2013-03-02 00:50:00,30.2,27.9,29.63,SSW,202,1.0,0.0,91,0.00,,,0.00,WeatherDisplay:10.37,2013-03-02 05:50:00,
2013-03-02 00:59:00,30.2,27.9,29.64,SW,224,2.0,0.0,91,0.00,,,0.00,WeatherDisplay:10.37,2013-03-02 05:59:00,
2013-03-02 01:10:00,29.8,27.5,29.65,SW,216,0.0,0.0,91,0.00,,,0.00,WeatherDisplay:10.37,2013-03-02 06:10:00,
2013-03-02 01:20:00,29.8,27.5,29.64,SSW,201,1.0,0.0,91,0.00,,,0.00,WeatherDisplay:10.37,2013-03-02 06:20:00,
2013-03-02 01:30:00,29.8,27.5,29.63,SW,224,2.0,0.0,91,0.00,,,0.00,WeatherDisplay:10.37,2013-03-02 06:30:00,
2013-03-02 01:40:00,30.1,27.8,29.63,SSW,211,0.0,0.0,91,0.00,,,0.00,WeatherDisplay:10.37,2013-03-02 06:40:00,
2013-03-02 01:50:00,29.8,27.5,29.63,WSW,242,0.0,0.0,91,0.00,,,0.00,WeatherDisplay:10.37,2013-03-02 06:50:00,
2013-03-02 01:59:00,29.8,27.3,29.62,SSW,205,3.0,0.0,90,0.00,,,0.00,WeatherDisplay:10.37,2013-03-02 06:59:00,
2013-03-02 02:10:00,29.8,27.2,29.62,SSW,200,1.0,0.0,90,0.00,,,0.00,WeatherDisplay:10.37,2013-03-02 07:10:00,
2013-03-02 02:20:00,29.7,27.4,29.62,SSW,194,5.0,0.0,91,0.00,,,0.00,WeatherDisplay:10.37,2013-03-02 07:20:00,
2013-03-02 02:30:00,29.7,27.4,29.64,SSW,212,1.0,0.0,91,0.00,,,0.00,WeatherDisplay:10.37,2013-03-02 07:30:00,
2013-03-02 02:40:00,29.7,27.4,29.63,SW,222,0.0,0.0,91,0.00,,,0.00,WeatherDisplay:10.37,2013-03-02 07:40:00,
2013-03-02 02:50:00,29.7,27.4,29.62,South,184,2.0,0.0,91,0.00,,,0.00,WeatherDisplay:10.37,2013-03-02 07:50:00,
2013-03-02 02:59:00,29.4,27.1,29.62,SSW,192,0.0,0.0,91,0.00,,,0.00,WeatherDisplay:10.37,2013-03-02 07:59:00,
2013-03-02 03:10:00,29.5,27.2,29.62,SW,215,1.0,0.0,91,0.00,,,0.00,WeatherDisplay:10.37,2013-03-02 08:10:00,
2013-03-02 03:20:00,29.3,26.7,29.62,South,174,1.0,0.0,90,0.00,,,0.00,WeatherDisplay:10.37,2013-03-02 08:20:00,
2013-03-02 03:30:00,29.3,26.7,29.62,SSW,210,1.0,0.0,90,0.00,,,0.00,WeatherDisplay:10.37,2013-03-02 08:30:00,
2013-03-02 03:40:00,29.3,27.0,29.63,SSW,209,2.0,0.0,91,0.00,,,0.00,WeatherDisplay:10.37,2013-03-02 08:40:00,
2013-03-02 03:50:00,29.1,26.8,29.63,SW,236,1.0,0.0,91,0.00,,,0.00,WeatherDisplay:10.37,2013-03-02 08:50:00,
2013-03-02 03:59:00,28.9,26.6,29.63,SSW,197,0.0,0.0,91,0.00,,,0.00,WeatherDisplay:10.37,2013-03-02 08:59:00,
2013-03-02 04:10:00,29.1,26.8,29.62,SSW,194,2.0,0.0,91,0.00,,,0.00,WeatherDisplay:10.37,2013-03-02 09:10:00,
2013-03-02 04:20:00,28.9,26.6,29.62,SSW,211,1.0,0.0,91,0.00,,,0.00,WeatherDisplay:10.37,2013-03-02 09:20:00,
2013-03-02 04:30:00,29.1,26.8,29.62,SSE,166,2.0,0.0,91,0.00,,,0.00,WeatherDisplay:10.37,2013-03-02 09:30:00,
2013-03-02 04:40:00,28.9,26.4,29.62,SSW,213,0.0,0.0,90,0.00,,,0.00,WeatherDisplay:10.37,2013-03-02 09:40:00,
2013-03-02 04:50:00,28.8,26.2,29.63,SW,218,1.0,0.0,90,0.00,,,0.00,WeatherDisplay:10.37,2013-03-02 09:50:00,
2013-03-02 04:59:00,28.8,26.5,29.63,SW,225,0.0,0.0,91,0.00,,,0.00,WeatherDisplay:10.37,2013-03-02 09:59:00,
2013-03-02 05:10:00,28.6,26.3,29.62,SW,226,1.0,0.0,91,0.00,,,0.00,WeatherDisplay:10.37,2013-03-02 10:10:00,
2013-03-02 05:20:00,28.6,26.3,29.62,SSW,209,1.0,0.0,91,0.00,,,0.00,WeatherDisplay:10.37,2013-03-02 10:20:00,
2013-03-02 05:30:00,28.5,26.2,29.62,SSE,168,0.0,0.0,91,0.00,,,0.00,WeatherDisplay:10.37,2013-03-02 10:30:00,
2013-03-02 05:40:00,28.6,26.3,29.62,SW,215,2.0,0.0,91,0.00,,,0.00,WeatherDisplay:10.37,2013-03-02 10:40:00,
2013-03-02 05:50:00,28.6,26.3,29.63,SSE,167,0.0,0.0,91,0.00,,,0.00,WeatherDisplay:10.37,2013-03-02 10:50:00,
2013-03-02 05:59:00,28.7,26.4,29.62,SW,221,2.0,0.0,91,0.00,,,0.00,WeatherDisplay:10.37,2013-03-02 10:59:00,
2013-03-02 06:10:00,28.6,26.3,29.63,SW,225,0.0,0.0,91,0.00,,,0.00,WeatherDisplay:10.37,2013-03-02 11:10:00,
2013-03-02 06:20:00,28.4,26.1,29.64,South,180,0.0,0.0,91,0.00,,,0.00,WeatherDisplay:10.37,2013-03-02 11:20:00,
2013-03-02 06:30:00,28.4,26.1,29.64,SSW,195,0.0,0.0,91,0.00,,,0.00,WeatherDisplay:10.37,2013-03-02 11:30:00,
2013-03-02 06:40:00,28.4,26.1,29.63,South,178,1.0,0.0,91,0.00,,,0.00,WeatherDisplay:10.37,2013-03-02 11:40:00,
2013-03-02 06:50:00,28.6,26.3,29.64,SSW,195,1.0,0.0,91,0.00,,,0.00,WeatherDisplay:10.37,2013-03-02 11:50:00,
2013-03-02 06:59:00,28.6,26.3,29.64,SSW,200,2.0,0.0,91,0.00,,,0.00,WeatherDisplay:10.37,2013-03-02 11:59:00,
2013-03-02 07:10:00,28.6,26.0,29.64,SW,228,0.0,0.0,90,0.00,,,0.00,WeatherDisplay:10.37,2013-03-02 12:10:00,
2013-03-02 07:20:00,28.9,26.3,29.64,SW,222,3.0,0.0,90,0.00,,,0.00,WeatherDisplay:10.37,2013-03-02 12:20:00,
2013-03-02 07:30:00,29.1,26.6,29.64,WSW,238,3.0,0.0,90,0.00,,,0.00,WeatherDisplay:10.37,2013-03-02 12:30:00,
2013-03-02 07:40:00,29.3,26.8,29.64,SW,225,1.0,0.0,90,0.00,,,0.00,WeatherDisplay:10.37,2013-03-02 12:40:00,
2013-03-02 07:50:00,29.7,27.1,29.63,SW,223,3.0,0.0,90,0.00,,,0.00,WeatherDisplay:10.37,2013-03-02 12:50:00,
2013-03-02 07:59:00,29.9,27.3,29.63,SSW,196,5.0,0.0,90,0.00,,,0.00,WeatherDisplay:10.37,2013-03-02 12:59:00,
2013-03-02 08:10:00,30.2,27.3,29.64,SW,233,3.0,0.0,89,0.00,,,0.00,WeatherDisplay:10.37,2013-03-02 13:10:00,
2013-03-02 08:20:00,30.6,27.7,29.64,WSW,247,6.0,0.0,89,0.00,,,0.00,WeatherDisplay:10.37,2013-03-02 13:20:00,
2013-03-02 08:30:00,30.7,27.9,29.64,WSW,239,8.0,0.0,89,0.00,,,0.00,WeatherDisplay:10.37,2013-03-02 13:30:00,
2013-03-02 08:40:00,30.9,27.8,29.64,SW,217,2.0,0.0,88,0.00,,,0.00,WeatherDisplay:10.37,2013-03-02 13:40:00,
2013-03-02 08:50:00,31.5,28.6,29.64,West,265,3.0,0.0,89,0.00,,,0.00,WeatherDisplay:10.37,2013-03-02 13:50:00,
2013-03-02 08:59:00,31.9,28.8,29.64,WSW,243,3.0,0.0,88,0.00,,,0.00,WeatherDisplay:10.37,2013-03-02 13:59:00,
2013-03-02 09:10:00,32.4,29.2,29.64,WSW,257,2.0,0.0,88,0.00,,,0.00,WeatherDisplay:10.37,2013-03-02 14:10:00,
2013-03-02 09:20:00,32.6,29.8,29.64,SSW,208,7.0,0.0,89,0.00,,,0.00,WeatherDisplay:10.37,2013-03-02 14:20:00,
2013-03-02 09:30:00,32.8,29.6,29.64,WSW,240,3.0,0.0,88,0.00,,,0.00,WeatherDisplay:10.37,2013-03-02 14:30:00,
2013-03-02 09:40:00,32.7,29.6,29.64,SW,230,5.0,0.0,88,0.00,,,0.00,WeatherDisplay:10.37,2013-03-02 14:40:00,
2013-03-02 09:50:00,32.9,29.7,29.65,West,268,7.0,0.0,88,0.00,,,0.00,WeatherDisplay:10.37,2013-03-02 14:50:00,
2013-03-02 09:59:00,32.9,29.7,29.65,WSW,241,1.0,0.0,88,0.00,,,0.00,WeatherDisplay:10.37,2013-03-02 14:59:00,
2013-03-02 10:10:00,33.3,30.1,29.65,WSW,238,3.0,0.0,88,0.00,,,0.00,WeatherDisplay:10.37,2013-03-02 15:10:00,
2013-03-02 10:20:00,33.4,30.3,29.65,WSW,254,2.0,0.0,88,0.00,,,0.00,WeatherDisplay:10.37,2013-03-02 15:20:00,
2013-03-02 10:30:00,33.7,30.3,29.64,SW,235,5.0,0.0,87,0.00,,,0.00,WeatherDisplay:10.37,2013-03-02 15:30:00,
2013-03-02 10:50:00,34.3,30.8,29.65,SW,231,6.0,0.0,87,0.00,,,0.00,WeatherDisplay:10.37,2013-03-02 15:50:00,
2013-03-02 10:59:00,34.4,31.0,29.65,SSW,194,3.0,0.0,87,0.00,,,0.00,WeatherDisplay:10.37,2013-03-02 15:59:00,
2013-03-02 11:10:00,34.8,31.6,29.64,South,188,2.0,0.0,88,0.00,,,0.00,WeatherDisplay:10.37,2013-03-02 16:10:00,
2013-03-02 11:20:00,35.1,31.9,29.64,SSE,163,5.0,0.0,88,0.00,,,0.00,WeatherDisplay:10.37,2013-03-02 16:20:00,
2013-03-02 11:30:00,35.1,31.9,29.64,South,179,6.0,0.0,88,0.00,,,0.00,WeatherDisplay:10.37,2013-03-02 16:30:00,
2013-03-02 11:40:00,35.1,31.3,29.64,SSW,198,5.0,0.0,86,0.00,,,0.00,WeatherDisplay:10.37,2013-03-02 16:40:00,
2013-03-02 11:50:00,35.1,31.6,29.63,SSW,213,2.0,0.0,87,0.00,,,0.00,WeatherDisplay:10.37,2013-03-02 16:50:00,
2013-03-02 11:59:00,35.1,31.1,29.62,SSW,205,5.0,0.0,85,0.00,,,0.00,WeatherDisplay:10.37,2013-03-02 16:59:00,
2013-03-02 12:10:00,35.4,31.6,29.62,SSW,200,3.0,0.0,86,0.00,,,0.00,WeatherDisplay:10.37,2013-03-02 17:10:00,
2013-03-02 12:20:00,35.3,31.0,29.62,SW,232,7.0,0.0,84,0.00,,,0.00,WeatherDisplay:10.37,2013-03-02 17:20:00,
2013-03-02 12:30:00,35.3,30.9,29.62,WSW,237,6.0,0.0,84,0.00,,,0.00,WeatherDisplay:10.37,2013-03-02 17:30:00,
2013-03-02 12:40:00,35.4,31.4,29.61,SW,225,3.0,0.0,85,0.00,,,0.00,WeatherDisplay:10.37,2013-03-02 17:40:00,
2013-03-02 12:50:00,35.6,31.5,29.61,SSW,213,6.0,0.0,85,0.00,,,0.00,WeatherDisplay:10.37,2013-03-02 17:50:00,
2013-03-02 12:59:00,35.8,31.7,29.61,South,190,6.0,0.0,85,0.00,,,0.00,WeatherDisplay:10.37,2013-03-02 17:59:00,
2013-03-02 13:10:00,36.0,31.6,29.61,SW,236,5.0,0.0,84,0.00,,,0.00,WeatherDisplay:10.37,2013-03-02 18:10:00,
2013-03-02 13:20:00,36.1,31.4,29.62,SW,223,2.0,0.0,83,0.00,,,0.00,WeatherDisplay:10.37,2013-03-02 18:20:00,
2013-03-02 13:30:00,35.6,31.5,29.62,SSW,206,6.0,0.0,85,0.00,,,0.00,WeatherDisplay:10.37,2013-03-02 18:30:00,
2013-03-02 13:40:00,35.4,30.8,29.62,SW,226,7.0,0.0,83,0.00,,,0.00,WeatherDisplay:10.37,2013-03-02 18:40:00,
2013-03-02 13:50:00,35.3,30.4,29.62,WSW,258,8.0,0.0,82,0.00,,,0.00,WeatherDisplay:10.37,2013-03-02 18:50:00,
2013-03-02 13:59:00,35.2,30.0,29.61,SW,235,6.0,0.0,81,0.00,,,0.00,WeatherDisplay:10.37,2013-03-02 18:59:00,
2013-03-02 14:10:00,35.0,30.4,29.61,SW,234,2.0,0.0,83,0.00,,,0.00,WeatherDisplay:10.37,2013-03-02 19:10:00,
2013-03-02 14:20:00,34.8,30.2,29.61,SW,228,6.0,0.0,83,0.00,,,0.00,WeatherDisplay:10.37,2013-03-02 19:20:00,
2013-03-02 14:30:00,34.6,30.3,29.61,SSW,201,2.0,0.0,84,0.00,,,0.00,WeatherDisplay:10.37,2013-03-02 19:30:00,
2013-03-02 14:40:00,34.5,30.2,29.61,SSE,148,2.0,0.0,84,0.00,,,0.00,WeatherDisplay:10.37,2013-03-02 19:40:00,
2013-03-02 14:50:00,34.5,30.2,29.61,South,184,6.0,0.0,84,0.00,,,0.00,WeatherDisplay:10.37,2013-03-02 19:50:00,
2013-03-02 14:59:00,34.3,30.0,29.61,SW,228,6.0,0.0,84,0.00,,,0.00,WeatherDisplay:10.37,2013-03-02 19:59:00,
2013-03-02 15:10:00,34.3,30.3,29.61,SW,222,2.0,0.0,85,0.00,,,0.00,WeatherDisplay:10.37,2013-03-02 20:10:00,
2013-03-02 15:20:00,34.3,30.0,29.61,WSW,239,5.0,0.0,84,0.00,,,0.00,WeatherDisplay:10.37,2013-03-02 20:20:00,
2013-03-02 15:30:00,34.2,30.1,29.61,SSW,211,6.0,0.0,85,0.00,,,0.00,WeatherDisplay:10.37,2013-03-02 20:30:00,
2013-03-02 15:40:00,33.8,30.1,29.61,South,169,2.0,0.0,86,0.00,,,0.00,WeatherDisplay:10.37,2013-03-02 20:40:00,
2013-03-02 15:50:00,33.4,29.7,29.62,SSW,195,1.0,0.0,86,0.00,,,0.00,WeatherDisplay:10.37,2013-03-02 20:50:00,
2013-03-02 15:59:00,33.4,29.7,29.62,SSW,199,3.0,0.0,86,0.00,,,0.00,WeatherDisplay:10.37,2013-03-02 20:59:00,
2013-03-02 16:10:00,33.3,29.5,29.62,South,190,1.0,0.0,86,0.00,,,0.00,WeatherDisplay:10.37,2013-03-02 21:10:00,
2013-03-02 16:20:00,33.2,29.2,29.61,SSW,212,2.0,0.0,85,0.00,,,0.00,WeatherDisplay:10.37,2013-03-02 21:20:00,
2013-03-02 16:30:00,32.9,28.6,29.62,WSW,251,2.0,0.0,84,0.00,,,0.00,WeatherDisplay:10.37,2013-03-02 21:30:00,
2013-03-02 16:40:00,32.7,28.1,29.62,SW,232,6.0,0.0,83,0.00,,,0.00,WeatherDisplay:10.37,2013-03-02 21:40:00,
2013-03-02 16:50:00,32.8,28.4,29.61,SW,230,6.0,0.0,84,0.00,,,0.00,WeatherDisplay:10.37,2013-03-02 21:50:00,
2013-03-02 16:59:00,32.7,28.1,29.61,SW,231,6.0,0.0,83,0.00,,,0.00,WeatherDisplay:10.37,2013-03-02 21:59:00,
2013-03-02 17:10:00,32.4,28.4,29.61,SW,223,3.0,0.0,85,0.00,,,0.00,WeatherDisplay:10.37,2013-03-02 22:10:00,
2013-03-02 17:20:00,32.4,27.2,29.63,WSW,238,6.0,0.0,81,0.00,,,0.00,WeatherDisplay:10.37,2013-03-02 22:20:00,
2013-03-02 17:30:00,32.1,27.5,29.63,SW,235,1.0,0.0,83,0.00,,,0.00,WeatherDisplay:10.37,2013-03-02 22:30:00,
2013-03-02 17:40:00,31.6,27.4,29.62,SW,228,1.0,0.0,84,0.00,,,0.00,WeatherDisplay:10.37,2013-03-02 22:40:00,
2013-03-02 17:50:00,31.6,27.3,29.63,WSW,243,0.0,0.0,84,0.00,,,0.00,WeatherDisplay:10.37,2013-03-02 22:50:00,
2013-03-02 17:59:00,31.5,26.9,29.63,WSW,247,5.0,0.0,83,0.00,,,0.00,WeatherDisplay:10.37,2013-03-02 22:59:00,
2013-03-02 18:10:00,31.5,27.5,29.63,SSW,211,5.0,0.0,85,0.00,,,0.00,WeatherDisplay:10.37,2013-03-02 23:10:00,
2013-03-02 18:20:00,31.5,26.9,29.63,WSW,243,5.0,0.0,83,0.00,,,0.00,WeatherDisplay:10.37,2013-03-02 23:20:00,
2013-03-02 18:30:00,31.3,27.0,29.64,WSW,243,2.0,0.0,84,0.00,,,0.00,WeatherDisplay:10.37,2013-03-02 23:30:00,
2013-03-02 18:40:00,31.1,26.5,29.64,SW,216,3.0,0.0,83,0.00,,,0.00,WeatherDisplay:10.37,2013-03-02 23:40:00,
2013-03-02 18:50:00,31.1,26.8,29.63,WSW,240,6.0,0.0,84,0.00,,,0.00,WeatherDisplay:10.37,2013-03-02 23:50:00,
2013-03-02 18:59:00,30.9,26.7,29.63,WSW,237,3.0,0.0,84,0.00,,,0.00,WeatherDisplay:10.37,2013-03-02 23:59:00,
2013-03-02 19:10:00,30.7,26.5,29.62,SW,229,1.0,0.0,84,0.00,,,0.00,WeatherDisplay:10.37,2013-03-03 00:10:00,
2013-03-02 19:20:00,30.7,26.2,29.63,SW,235,7.0,0.0,83,0.00,,,0.00,WeatherDisplay:10.37,2013-03-03 00:20:00,
2013-03-02 19:30:00,30.6,26.3,29.64,SW,224,5.0,0.0,84,0.00,,,0.00,WeatherDisplay:10.37,2013-03-03 00:30:00,
2013-03-02 19:40:00,30.4,25.8,29.63,WSW,248,0.0,0.0,83,0.00,,,0.00,WeatherDisplay:10.37,2013-03-03 00:40:00,
2013-03-02 19:50:00,30.4,26.1,29.63,SW,235,2.0,0.0,84,0.00,,,0.00,WeatherDisplay:10.37,2013-03-03 00:50:00,
2013-03-02 19:59:00,30.2,25.7,29.63,WSW,242,5.0,0.0,83,0.00,,,0.00,WeatherDisplay:10.37,2013-03-03 00:59:00,
2013-03-02 20:10:00,30.0,25.7,29.63,WSW,241,6.0,0.0,84,0.00,,,0.00,WeatherDisplay:10.37,2013-03-03 01:10:00,
2013-03-02 20:20:00,29.8,25.6,29.65,SW,233,1.0,0.0,84,0.00,,,0.00,WeatherDisplay:10.37,2013-03-03 01:20:00,
2013-03-02 20:30:00,29.8,25.9,29.66,SW,223,1.0,0.0,85,0.00,,,0.00,WeatherDisplay:10.37,2013-03-03 01:30:00,
2013-03-02 20:40:00,29.8,25.6,29.65,SSW,207,1.0,0.0,84,0.00,,,0.00,WeatherDisplay:10.37,2013-03-03 01:40:00,
2013-03-02 20:50:00,29.7,25.1,29.64,SW,229,3.0,0.0,83,0.00,,,0.00,WeatherDisplay:10.37,2013-03-03 01:50:00,
2013-03-02 20:59:00,29.7,25.4,29.65,SW,223,3.0,0.0,84,0.00,,,0.00,WeatherDisplay:10.37,2013-03-03 01:59:00,
2013-03-02 21:10:00,29.7,25.7,29.64,SW,228,2.0,0.0,85,0.00,,,0.00,WeatherDisplay:10.37,2013-03-03 02:10:00,
2013-03-02 21:20:00,29.7,25.7,29.66,SW,234,1.0,0.0,85,0.00,,,0.00,WeatherDisplay:10.37,2013-03-03 02:20:00,
2013-03-02 21:30:00,29.7,26.0,29.65,SW,220,0.0,0.0,86,0.00,,,0.00,WeatherDisplay:10.37,2013-03-03 02:30:00,
2013-03-02 21:40:00,29.4,25.7,29.65,SW,236,1.0,0.0,86,0.00,,,0.00,WeatherDisplay:10.37,2013-03-03 02:40:00,
2013-03-02 21:50:00,29.3,25.6,29.64,SW,234,2.0,0.0,86,0.00,,,0.00,WeatherDisplay:10.37,2013-03-03 02:50:00,
2013-03-02 21:59:00,29.3,25.6,29.64,SW,235,2.0,0.0,86,0.00,,,0.00,WeatherDisplay:10.37,2013-03-03 02:59:00,
2013-03-02 22:10:00,29.1,25.5,29.64,WSW,238,1.0,0.0,86,0.00,,,0.00,WeatherDisplay:10.37,2013-03-03 03:10:00,
2013-03-02 22:20:00,29.3,25.6,29.63,SSW,207,3.0,0.0,86,0.00,,,0.00,WeatherDisplay:10.37,2013-03-03 03:20:00,
2013-03-02 22:30:00,29.2,25.6,29.63,SW,231,0.0,0.0,86,0.00,,,0.00,WeatherDisplay:10.37,2013-03-03 03:30:00,
2013-03-02 22:40:00,28.9,25.3,29.62,SW,225,2.0,0.0,86,0.00,,,0.00,WeatherDisplay:10.37,2013-03-03 03:40:00,
2013-03-02 22:50:00,28.9,25.3,29.62,SW,225,0.0,0.0,86,0.00,,,0.00,WeatherDisplay:10.37,2013-03-03 03:50:00,
2013-03-02 22:59:00,28.8,25.4,29.62,SW,232,2.0,0.0,87,0.00,,,0.00,WeatherDisplay:10.37,2013-03-03 03:59:00,
2013-03-02 23:10:00,28.8,25.4,29.62,SSW,207,0.0,0.0,87,0.00,,,0.00,WeatherDisplay:10.37,2013-03-03 04:10:00,
2013-03-02 23:20:00,28.8,25.4,29.62,SW,216,1.0,0.0,87,0.00,,,0.00,WeatherDisplay:10.37,2013-03-03 04:20:00,
2013-03-02 23:30:00,28.8,25.4,29.61,SW,229,1.0,0.0,87,0.00,,,0.00,WeatherDisplay:10.37,2013-03-03 04:30:00,
2013-03-02 23:40:00,28.8,25.4,29.61,South,190,3.0,0.0,87,0.00,,,0.00,WeatherDisplay:10.37,2013-03-03 04:40:00,
2013-03-02 23:50:00,28.8,25.4,29.62,SW,214,0.0,0.0,87,0.00,,,0.00,WeatherDisplay:10.37,2013-03-03 04:50:00,
2013-03-02 23:59:00,28.8,25.4,29.61,SSW,207,1.0,0.0,87,0.00,,,0.00,WeatherDisplay:10.37,2013-03-03 04:59:00,